sensor_id;sensor_type;location;lat;lon;timestamp;P1;durP1;ratioP1;P2;durP2;ratioP2
23187;SDS011;11762;59.878;17.686;2023-09-19T00:00:06;10.17;;;3.40;;
23187;SDS011;11762;59.878;17.686;2023-09-19T00:02:34;10.07;;;3.50;;
23187;SDS011;11762;59.878;17.686;2023-09-19T00:05:04;10.27;;;3.83;;
23187;SDS011;11762;59.878;17.686;2023-09-19T00:07:32;7.93;;;4.03;;
23187;SDS011;11762;59.878;17.686;2023-09-19T00:10:01;12.57;;;4.60;;
23187;SDS011;11762;59.878;17.686;2023-09-19T00:12:29;10.80;;;3.57;;
23187;SDS011;11762;59.878;17.686;2023-09-19T00:14:59;7.30;;;3.53;;
23187;SDS011;11762;59.878;17.686;2023-09-19T00:17:26;12.50;;;4.17;;
23187;SDS011;11762;59.878;17.686;2023-09-19T00:19:55;8.20;;;4.07;;
23187;SDS011;11762;59.878;17.686;2023-09-19T00:22:22;11.47;;;4.47;;
23187;SDS011;11762;59.878;17.686;2023-09-19T00:24:51;11.20;;;4.57;;
23187;SDS011;11762;59.878;17.686;2023-09-19T00:27:20;13.10;;;4.37;;
23187;SDS011;11762;59.878;17.686;2023-09-19T00:29:47;7.73;;;4.47;;
23187;SDS011;11762;59.878;17.686;2023-09-19T00:32:15;10.60;;;4.50;;
23187;SDS011;11762;59.878;17.686;2023-09-19T00:34:43;7.30;;;4.50;;
23187;SDS011;11762;59.878;17.686;2023-09-19T00:37:09;17.77;;;5.07;;
23187;SDS011;11762;59.878;17.686;2023-09-19T00:39:37;14.17;;;5.43;;
23187;SDS011;11762;59.878;17.686;2023-09-19T00:42:06;10.23;;;4.93;;
23187;SDS011;11762;59.878;17.686;2023-09-19T00:44:33;8.83;;;4.90;;
23187;SDS011;11762;59.878;17.686;2023-09-19T00:47:02;10.33;;;6.07;;
23187;SDS011;11762;59.878;17.686;2023-09-19T00:49:31;11.97;;;5.17;;
23187;SDS011;11762;59.878;17.686;2023-09-19T00:51:59;14.43;;;5.33;;
23187;SDS011;11762;59.878;17.686;2023-09-19T00:54:26;13.17;;;5.23;;
23187;SDS011;11762;59.878;17.686;2023-09-19T00:56:54;11.00;;;5.30;;
23187;SDS011;11762;59.878;17.686;2023-09-19T00:59:22;9.20;;;5.13;;
23187;SDS011;11762;59.878;17.686;2023-09-19T01:01:49;11.20;;;5.60;;
23187;SDS011;11762;59.878;17.686;2023-09-19T01:04:19;14.37;;;5.83;;
23187;SDS011;11762;59.878;17.686;2023-09-19T01:06:48;11.57;;;6.00;;
23187;SDS011;11762;59.878;17.686;2023-09-19T01:09:18;13.90;;;5.93;;
23187;SDS011;11762;59.878;17.686;2023-09-19T01:11:45;12.73;;;5.60;;
23187;SDS011;11762;59.878;17.686;2023-09-19T01:14:24;14.67;;;6.67;;
23187;SDS011;11762;59.878;17.686;2023-09-19T01:17:09;14.63;;;6.43;;
23187;SDS011;11762;59.878;17.686;2023-09-19T01:20:00;12.53;;;6.30;;
23187;SDS011;11762;59.878;17.686;2023-09-19T01:22:42;12.70;;;6.87;;
23187;SDS011;11762;59.878;17.686;2023-09-19T01:28:53;11.00;;;6.57;;
23187;SDS011;11762;59.878;17.686;2023-09-19T01:31:33;15.90;;;7.20;;
23187;SDS011;11762;59.878;17.686;2023-09-19T01:34:04;13.43;;;6.70;;
23187;SDS011;11762;59.878;17.686;2023-09-19T01:36:33;13.00;;;6.90;;
23187;SDS011;11762;59.878;17.686;2023-09-19T01:39:01;18.53;;;7.37;;
23187;SDS011;11762;59.878;17.686;2023-09-19T01:41:39;12.27;;;7.27;;
23187;SDS011;11762;59.878;17.686;2023-09-19T01:44:22;16.73;;;8.80;;
23187;SDS011;11762;59.878;17.686;2023-09-19T01:46:57;19.33;;;7.93;;
23187;SDS011;11762;59.878;17.686;2023-09-19T01:49:32;13.80;;;7.10;;
23187;SDS011;11762;59.878;17.686;2023-09-19T01:52:05;11.63;;;7.00;;
23187;SDS011;11762;59.878;17.686;2023-09-19T01:54:40;17.23;;;8.30;;
23187;SDS011;11762;59.878;17.686;2023-09-19T01:57:14;13.70;;;7.73;;
23187;SDS011;11762;59.878;17.686;2023-09-19T01:59:48;15.47;;;7.13;;
23187;SDS011;11762;59.878;17.686;2023-09-19T02:02:20;14.67;;;7.50;;
23187;SDS011;11762;59.878;17.686;2023-09-19T02:04:48;13.80;;;8.63;;
23187;SDS011;11762;59.878;17.686;2023-09-19T02:07:15;20.60;;;8.63;;
23187;SDS011;11762;59.878;17.686;2023-09-19T02:09:43;17.30;;;8.93;;
23187;SDS011;11762;59.878;17.686;2023-09-19T02:12:10;15.37;;;8.27;;
23187;SDS011;11762;59.878;17.686;2023-09-19T02:14:38;16.50;;;8.73;;
23187;SDS011;11762;59.878;17.686;2023-09-19T02:17:05;17.50;;;8.83;;
23187;SDS011;11762;59.878;17.686;2023-09-19T02:19:37;23.57;;;8.73;;
23187;SDS011;11762;59.878;17.686;2023-09-19T02:22:06;16.93;;;8.97;;
23187;SDS011;11762;59.878;17.686;2023-09-19T02:24:35;12.65;;;8.50;;
23187;SDS011;11762;59.878;17.686;2023-09-19T02:27:03;23.33;;;9.37;;
23187;SDS011;11762;59.878;17.686;2023-09-19T02:29:31;22.63;;;9.97;;
23187;SDS011;11762;59.878;17.686;2023-09-19T02:31:59;18.27;;;9.70;;
23187;SDS011;11762;59.878;17.686;2023-09-19T02:34:27;20.77;;;9.70;;
23187;SDS011;11762;59.878;17.686;2023-09-19T02:36:56;20.40;;;10.77;;
23187;SDS011;11762;59.878;17.686;2023-09-19T02:39:23;17.13;;;9.83;;
23187;SDS011;11762;59.878;17.686;2023-09-19T02:41:50;16.53;;;10.13;;
23187;SDS011;11762;59.878;17.686;2023-09-19T02:44:17;17.57;;;10.67;;
23187;SDS011;11762;59.878;17.686;2023-09-19T02:46:45;18.50;;;11.00;;
23187;SDS011;11762;59.878;17.686;2023-09-19T02:49:12;20.57;;;11.03;;
23187;SDS011;11762;59.878;17.686;2023-09-19T02:51:39;19.23;;;12.00;;
23187;SDS011;11762;59.878;17.686;2023-09-19T02:54:08;22.57;;;12.00;;
23187;SDS011;11762;59.878;17.686;2023-09-19T02:56:36;21.40;;;11.07;;
23187;SDS011;11762;59.878;17.686;2023-09-19T02:59:04;25.70;;;12.93;;
23187;SDS011;11762;59.878;17.686;2023-09-19T03:01:31;23.83;;;12.13;;
23187;SDS011;11762;59.878;17.686;2023-09-19T03:03:58;21.60;;;11.90;;
23187;SDS011;11762;59.878;17.686;2023-09-19T03:06:26;23.33;;;12.57;;
23187;SDS011;11762;59.878;17.686;2023-09-19T03:08:56;20.48;;;12.88;;
23187;SDS011;11762;59.878;17.686;2023-09-19T03:11:26;21.52;;;13.40;;
23187;SDS011;11762;59.878;17.686;2023-09-19T03:13:53;23.70;;;12.75;;
23187;SDS011;11762;59.878;17.686;2023-09-19T03:16:21;27.20;;;12.47;;
23187;SDS011;11762;59.878;17.686;2023-09-19T03:18:48;21.97;;;12.57;;
23187;SDS011;11762;59.878;17.686;2023-09-19T03:21:15;24.57;;;13.03;;
23187;SDS011;11762;59.878;17.686;2023-09-19T03:23:42;25.23;;;13.00;;
23187;SDS011;11762;59.878;17.686;2023-09-19T03:26:11;21.10;;;12.67;;
23187;SDS011;11762;59.878;17.686;2023-09-19T03:28:41;21.50;;;13.68;;
23187;SDS011;11762;59.878;17.686;2023-09-19T03:31:08;31.07;;;14.27;;
23187;SDS011;11762;59.878;17.686;2023-09-19T03:33:36;25.00;;;14.75;;
23187;SDS011;11762;59.878;17.686;2023-09-19T03:36:03;22.88;;;14.18;;
23187;SDS011;11762;59.878;17.686;2023-09-19T03:38:31;20.75;;;13.60;;
23187;SDS011;11762;59.878;17.686;2023-09-19T03:40:59;27.98;;;13.25;;
23187;SDS011;11762;59.878;17.686;2023-09-19T03:43:26;26.02;;;13.55;;
23187;SDS011;11762;59.878;17.686;2023-09-19T03:45:54;26.70;;;14.63;;
23187;SDS011;11762;59.878;17.686;2023-09-19T03:48:21;28.27;;;13.77;;
23187;SDS011;11762;59.878;17.686;2023-09-19T03:50:48;29.70;;;13.97;;
23187;SDS011;11762;59.878;17.686;2023-09-19T03:53:16;25.52;;;14.75;;
23187;SDS011;11762;59.878;17.686;2023-09-19T03:55:44;25.75;;;14.77;;
23187;SDS011;11762;59.878;17.686;2023-09-19T03:58:12;27.02;;;15.60;;
23187;SDS011;11762;59.878;17.686;2023-09-19T04:00:39;34.70;;;15.98;;
23187;SDS011;11762;59.878;17.686;2023-09-19T04:03:08;25.88;;;14.90;;
23187;SDS011;11762;59.878;17.686;2023-09-19T04:05:43;25.80;;;15.43;;
23187;SDS011;11762;59.878;17.686;2023-09-19T04:08:10;32.58;;;16.40;;
23187;SDS011;11762;59.878;17.686;2023-09-19T04:10:37;24.90;;;15.80;;
23187;SDS011;11762;59.878;17.686;2023-09-19T04:13:04;28.67;;;16.55;;
23187;SDS011;11762;59.878;17.686;2023-09-19T04:15:32;25.75;;;16.30;;
23187;SDS011;11762;59.878;17.686;2023-09-19T04:17:59;31.13;;;17.98;;
23187;SDS011;11762;59.878;17.686;2023-09-19T04:20:27;28.35;;;16.88;;
23187;SDS011;11762;59.878;17.686;2023-09-19T04:22:54;29.67;;;16.95;;
23187;SDS011;11762;59.878;17.686;2023-09-19T04:25:21;33.00;;;18.27;;
23187;SDS011;11762;59.878;17.686;2023-09-19T04:27:49;29.50;;;15.75;;
23187;SDS011;11762;59.878;17.686;2023-09-19T04:30:16;29.08;;;16.13;;
23187;SDS011;11762;59.878;17.686;2023-09-19T04:32:43;28.52;;;17.00;;
23187;SDS011;11762;59.878;17.686;2023-09-19T04:35:10;26.55;;;17.80;;
23187;SDS011;11762;59.878;17.686;2023-09-19T04:37:39;31.65;;;18.15;;
23187;SDS011;11762;59.878;17.686;2023-09-19T04:40:07;30.75;;;16.95;;
23187;SDS011;11762;59.878;17.686;2023-09-19T04:42:39;27.48;;;17.27;;
23187;SDS011;11762;59.878;17.686;2023-09-19T04:45:07;26.35;;;17.23;;
23187;SDS011;11762;59.878;17.686;2023-09-19T04:47:35;29.02;;;16.92;;
23187;SDS011;11762;59.878;17.686;2023-09-19T04:50:04;30.98;;;16.25;;
23187;SDS011;11762;59.878;17.686;2023-09-19T04:52:41;27.05;;;17.58;;
23187;SDS011;11762;59.878;17.686;2023-09-19T04:55:10;35.70;;;18.48;;
23187;SDS011;11762;59.878;17.686;2023-09-19T04:57:42;28.45;;;18.15;;
23187;SDS011;11762;59.878;17.686;2023-09-19T05:00:11;29.08;;;17.40;;
23187;SDS011;11762;59.878;17.686;2023-09-19T05:02:40;27.13;;;16.67;;
23187;SDS011;11762;59.878;17.686;2023-09-19T05:05:07;29.00;;;17.95;;
23187;SDS011;11762;59.878;17.686;2023-09-19T05:07:36;25.58;;;16.55;;
23187;SDS011;11762;59.878;17.686;2023-09-19T05:10:05;33.55;;;18.10;;
23187;SDS011;11762;59.878;17.686;2023-09-19T05:12:33;26.48;;;17.25;;
23187;SDS011;11762;59.878;17.686;2023-09-19T05:15:00;27.67;;;17.60;;
23187;SDS011;11762;59.878;17.686;2023-09-19T05:17:28;35.47;;;19.00;;
23187;SDS011;11762;59.878;17.686;2023-09-19T05:19:55;27.02;;;17.75;;
23187;SDS011;11762;59.878;17.686;2023-09-19T05:22:23;28.08;;;16.65;;
23187;SDS011;11762;59.878;17.686;2023-09-19T05:24:50;27.77;;;18.67;;
23187;SDS011;11762;59.878;17.686;2023-09-19T05:27:19;28.70;;;16.88;;
23187;SDS011;11762;59.878;17.686;2023-09-19T05:29:47;34.25;;;17.58;;
23187;SDS011;11762;59.878;17.686;2023-09-19T05:32:14;30.40;;;17.45;;
23187;SDS011;11762;59.878;17.686;2023-09-19T05:34:41;30.25;;;18.20;;
23187;SDS011;11762;59.878;17.686;2023-09-19T05:37:08;25.02;;;16.20;;
23187;SDS011;11762;59.878;17.686;2023-09-19T05:39:34;30.52;;;17.83;;
23187;SDS011;11762;59.878;17.686;2023-09-19T05:42:02;23.77;;;16.10;;
23187;SDS011;11762;59.878;17.686;2023-09-19T05:44:31;23.95;;;16.38;;
23187;SDS011;11762;59.878;17.686;2023-09-19T05:46:58;27.65;;;17.52;;
23187;SDS011;11762;59.878;17.686;2023-09-19T05:49:25;27.20;;;16.42;;
23187;SDS011;11762;59.878;17.686;2023-09-19T05:51:52;31.23;;;17.00;;
23187;SDS011;11762;59.878;17.686;2023-09-19T05:54:21;33.22;;;19.40;;
23187;SDS011;11762;59.878;17.686;2023-09-19T05:56:48;29.20;;;17.65;;
23187;SDS011;11762;59.878;17.686;2023-09-19T05:59:18;31.85;;;16.75;;
23187;SDS011;11762;59.878;17.686;2023-09-19T06:01:46;26.95;;;16.35;;
23187;SDS011;11762;59.878;17.686;2023-09-19T06:04:13;26.70;;;17.45;;
23187;SDS011;11762;59.878;17.686;2023-09-19T06:06:40;25.05;;;16.63;;
23187;SDS011;11762;59.878;17.686;2023-09-19T06:09:07;29.77;;;16.98;;
23187;SDS011;11762;59.878;17.686;2023-09-19T06:11:34;25.88;;;16.27;;
23187;SDS011;11762;59.878;17.686;2023-09-19T06:14:02;28.23;;;17.80;;
23187;SDS011;11762;59.878;17.686;2023-09-19T06:16:30;22.98;;;16.70;;
23187;SDS011;11762;59.878;17.686;2023-09-19T06:18:59;22.85;;;16.02;;
23187;SDS011;11762;59.878;17.686;2023-09-19T06:21:26;26.92;;;16.38;;
23187;SDS011;11762;59.878;17.686;2023-09-19T06:23:53;27.17;;;16.65;;
23187;SDS011;11762;59.878;17.686;2023-09-19T06:26:20;27.98;;;16.92;;
23187;SDS011;11762;59.878;17.686;2023-09-19T06:28:48;24.35;;;16.92;;
23187;SDS011;11762;59.878;17.686;2023-09-19T06:31:16;23.58;;;16.17;;
23187;SDS011;11762;59.878;17.686;2023-09-19T06:33:43;23.95;;;16.15;;
23187;SDS011;11762;59.878;17.686;2023-09-19T06:36:11;29.33;;;15.88;;
23187;SDS011;11762;59.878;17.686;2023-09-19T06:38:38;22.38;;;15.65;;
23187;SDS011;11762;59.878;17.686;2023-09-19T06:41:06;22.23;;;15.93;;
23187;SDS011;11762;59.878;17.686;2023-09-19T06:43:33;24.25;;;15.90;;
23187;SDS011;11762;59.878;17.686;2023-09-19T06:46:01;24.45;;;16.25;;
23187;SDS011;11762;59.878;17.686;2023-09-19T06:48:29;26.30;;;15.32;;
23187;SDS011;11762;59.878;17.686;2023-09-19T06:50:55;30.90;;;17.25;;
23187;SDS011;11762;59.878;17.686;2023-09-19T06:53:25;25.58;;;15.23;;
23187;SDS011;11762;59.878;17.686;2023-09-19T06:55:51;23.42;;;16.27;;
23187;SDS011;11762;59.878;17.686;2023-09-19T06:58:19;22.30;;;16.08;;
23187;SDS011;11762;59.878;17.686;2023-09-19T07:00:46;26.15;;;16.23;;
23187;SDS011;11762;59.878;17.686;2023-09-19T07:03:15;22.45;;;15.57;;
23187;SDS011;11762;59.878;17.686;2023-09-19T07:05:47;33.67;;;15.30;;
23187;SDS011;11762;59.878;17.686;2023-09-19T07:08:14;25.35;;;16.08;;
23187;SDS011;11762;59.878;17.686;2023-09-19T07:10:42;19.38;;;13.80;;
23187;SDS011;11762;59.878;17.686;2023-09-19T07:13:13;26.30;;;15.40;;
23187;SDS011;11762;59.878;17.686;2023-09-19T07:15:41;25.20;;;15.13;;
23187;SDS011;11762;59.878;17.686;2023-09-19T07:18:12;29.85;;;19.58;;
23187;SDS011;11762;59.878;17.686;2023-09-19T07:20:39;24.15;;;15.85;;
23187;SDS011;11762;59.878;17.686;2023-09-19T07:23:10;30.77;;;17.08;;
23187;SDS011;11762;59.878;17.686;2023-09-19T07:25:39;18.38;;;13.95;;
23187;SDS011;11762;59.878;17.686;2023-09-19T07:28:07;21.42;;;15.32;;
23187;SDS011;11762;59.878;17.686;2023-09-19T07:30:35;25.23;;;14.85;;
23187;SDS011;11762;59.878;17.686;2023-09-19T07:33:04;21.92;;;15.57;;
23187;SDS011;11762;59.878;17.686;2023-09-19T07:35:31;23.00;;;14.68;;
23187;SDS011;11762;59.878;17.686;2023-09-19T07:37:58;23.95;;;15.00;;
23187;SDS011;11762;59.878;17.686;2023-09-19T07:40:26;22.35;;;14.90;;
23187;SDS011;11762;59.878;17.686;2023-09-19T07:42:54;20.67;;;14.32;;
23187;SDS011;11762;59.878;17.686;2023-09-19T07:45:22;19.73;;;14.70;;
23187;SDS011;11762;59.878;17.686;2023-09-19T07:47:50;21.27;;;13.65;;
23187;SDS011;11762;59.878;17.686;2023-09-19T07:50:18;25.33;;;14.30;;
23187;SDS011;11762;59.878;17.686;2023-09-19T07:52:46;21.65;;;14.35;;
23187;SDS011;11762;59.878;17.686;2023-09-19T07:55:13;21.13;;;14.65;;
23187;SDS011;11762;59.878;17.686;2023-09-19T07:57:42;22.85;;;15.32;;
23187;SDS011;11762;59.878;17.686;2023-09-19T08:00:10;25.02;;;15.00;;
23187;SDS011;11762;59.878;17.686;2023-09-19T08:02:40;25.20;;;14.13;;
23187;SDS011;11762;59.878;17.686;2023-09-19T08:05:08;18.55;;;14.25;;
23187;SDS011;11762;59.878;17.686;2023-09-19T08:07:36;20.75;;;13.75;;
23187;SDS011;11762;59.878;17.686;2023-09-19T08:10:04;19.90;;;13.77;;
23187;SDS011;11762;59.878;17.686;2023-09-19T08:12:32;17.92;;;13.80;;
23187;SDS011;11762;59.878;17.686;2023-09-19T08:15:00;23.20;;;14.35;;
23187;SDS011;11762;59.878;17.686;2023-09-19T08:17:28;30.05;;;13.15;;
23187;SDS011;11762;59.878;17.686;2023-09-19T08:20:01;19.60;;;13.00;;
23187;SDS011;11762;59.878;17.686;2023-09-19T08:22:30;21.33;;;13.57;;
23187;SDS011;11762;59.878;17.686;2023-09-19T08:24:57;21.42;;;12.82;;
23187;SDS011;11762;59.878;17.686;2023-09-19T08:27:24;19.20;;;12.75;;
23187;SDS011;11762;59.878;17.686;2023-09-19T08:29:53;19.27;;;13.18;;
23187;SDS011;11762;59.878;17.686;2023-09-19T08:32:19;39.63;;;13.35;;
23187;SDS011;11762;59.878;17.686;2023-09-19T08:34:49;25.00;;;12.38;;
23187;SDS011;11762;59.878;17.686;2023-09-19T08:37:17;26.48;;;13.20;;
23187;SDS011;11762;59.878;17.686;2023-09-19T08:39:44;20.88;;;12.50;;
23187;SDS011;11762;59.878;17.686;2023-09-19T08:42:12;18.65;;;12.45;;
23187;SDS011;11762;59.878;17.686;2023-09-19T08:44:41;17.70;;;12.02;;
23187;SDS011;11762;59.878;17.686;2023-09-19T08:47:09;20.17;;;11.38;;
23187;SDS011;11762;59.878;17.686;2023-09-19T08:49:39;18.25;;;12.02;;
23187;SDS011;11762;59.878;17.686;2023-09-19T08:52:19;17.73;;;12.80;;
23187;SDS011;11762;59.878;17.686;2023-09-19T08:54:48;20.65;;;12.18;;
23187;SDS011;11762;59.878;17.686;2023-09-19T08:57:19;15.80;;;11.52;;
23187;SDS011;11762;59.878;17.686;2023-09-19T08:59:47;14.93;;;11.23;;
23187;SDS011;11762;59.878;17.686;2023-09-19T09:02:15;17.10;;;11.93;;
23187;SDS011;11762;59.878;17.686;2023-09-19T09:04:43;18.55;;;10.60;;
23187;SDS011;11762;59.878;17.686;2023-09-19T09:07:12;13.75;;;9.57;;
23187;SDS011;11762;59.878;17.686;2023-09-19T09:09:43;16.08;;;10.25;;
23187;SDS011;11762;59.878;17.686;2023-09-19T09:12:11;13.60;;;9.77;;
23187;SDS011;11762;59.878;17.686;2023-09-19T09:14:39;14.05;;;9.75;;
23187;SDS011;11762;59.878;17.686;2023-09-19T09:17:06;15.32;;;8.93;;
23187;SDS011;11762;59.878;17.686;2023-09-19T09:19:34;15.30;;;10.00;;
23187;SDS011;11762;59.878;17.686;2023-09-19T09:22:06;15.38;;;9.57;;
23187;SDS011;11762;59.878;17.686;2023-09-19T09:24:34;16.40;;;9.20;;
23187;SDS011;11762;59.878;17.686;2023-09-19T09:27:04;12.98;;;8.48;;
23187;SDS011;11762;59.878;17.686;2023-09-19T09:29:40;16.20;;;9.63;;
23187;SDS011;11762;59.878;17.686;2023-09-19T09:32:19;17.67;;;9.52;;
23187;SDS011;11762;59.878;17.686;2023-09-19T09:34:47;17.60;;;9.80;;
23187;SDS011;11762;59.878;17.686;2023-09-19T09:37:16;13.77;;;8.80;;
23187;SDS011;11762;59.878;17.686;2023-09-19T09:39:48;17.77;;;9.20;;
23187;SDS011;11762;59.878;17.686;2023-09-19T09:45:12;14.70;;;7.97;;
23187;SDS011;11762;59.878;17.686;2023-09-19T09:47:44;12.90;;;8.50;;
23187;SDS011;11762;59.878;17.686;2023-09-19T09:50:27;13.93;;;7.88;;
23187;SDS011;11762;59.878;17.686;2023-09-19T09:53:02;13.25;;;7.72;;
23187;SDS011;11762;59.878;17.686;2023-09-19T09:55:39;10.75;;;8.18;;
23187;SDS011;11762;59.878;17.686;2023-09-19T09:58:26;14.68;;;8.27;;
23187;SDS011;11762;59.878;17.686;2023-09-19T10:00:55;10.95;;;7.00;;
23187;SDS011;11762;59.878;17.686;2023-09-19T10:03:31;13.43;;;7.60;;
23187;SDS011;11762;59.878;17.686;2023-09-19T10:06:03;13.95;;;7.22;;
23187;SDS011;11762;59.878;17.686;2023-09-19T10:08:57;13.63;;;6.75;;
23187;SDS011;11762;59.878;17.686;2023-09-19T10:11:36;12.90;;;7.03;;
23187;SDS011;11762;59.878;17.686;2023-09-19T10:14:10;8.90;;;6.05;;
23187;SDS011;11762;59.878;17.686;2023-09-19T10:16:45;8.75;;;6.03;;
23187;SDS011;11762;59.878;17.686;2023-09-19T10:19:15;12.82;;;6.78;;
23187;SDS011;11762;59.878;17.686;2023-09-19T10:21:50;11.93;;;6.47;;
23187;SDS011;11762;59.878;17.686;2023-09-19T10:24:20;15.98;;;5.78;;
23187;SDS011;11762;59.878;17.686;2023-09-19T10:26:50;8.50;;;5.60;;
23187;SDS011;11762;59.878;17.686;2023-09-19T10:29:18;10.68;;;6.20;;
23187;SDS011;11762;59.878;17.686;2023-09-19T10:31:47;8.75;;;5.88;;
23187;SDS011;11762;59.878;17.686;2023-09-19T10:34:15;14.27;;;5.65;;
23187;SDS011;11762;59.878;17.686;2023-09-19T10:36:44;11.32;;;5.55;;
23187;SDS011;11762;59.878;17.686;2023-09-19T10:39:12;8.82;;;5.22;;
23187;SDS011;11762;59.878;17.686;2023-09-19T10:41:44;9.88;;;5.13;;
23187;SDS011;11762;59.878;17.686;2023-09-19T10:44:21;8.00;;;4.90;;
23187;SDS011;11762;59.878;17.686;2023-09-19T10:46:51;7.97;;;4.30;;
23187;SDS011;11762;59.878;17.686;2023-09-19T10:49:19;8.50;;;5.07;;
23187;SDS011;11762;59.878;17.686;2023-09-19T10:51:47;10.95;;;5.20;;
23187;SDS011;11762;59.878;17.686;2023-09-19T10:54:21;8.30;;;4.97;;
23187;SDS011;11762;59.878;17.686;2023-09-19T10:56:53;10.40;;;4.90;;
23187;SDS011;11762;59.878;17.686;2023-09-19T10:59:25;6.85;;;4.22;;
23187;SDS011;11762;59.878;17.686;2023-09-19T11:01:59;6.75;;;4.13;;
23187;SDS011;11762;59.878;17.686;2023-09-19T11:04:42;10.77;;;4.57;;
23187;SDS011;11762;59.878;17.686;2023-09-19T11:07:13;9.50;;;4.57;;
23187;SDS011;11762;59.878;17.686;2023-09-19T11:09:44;7.45;;;4.43;;
23187;SDS011;11762;59.878;17.686;2023-09-19T11:12:12;9.15;;;4.18;;
23187;SDS011;11762;59.878;17.686;2023-09-19T11:24:29;5.32;;;2.85;;
23187;SDS011;11762;59.878;17.686;2023-09-19T11:29:56;6.07;;;2.65;;
23187;SDS011;11762;59.878;17.686;2023-09-19T11:35:59;6.13;;;2.17;;
23187;SDS011;11762;59.878;17.686;2023-09-19T11:41:40;3.00;;;1.80;;
23187;SDS011;11762;59.878;17.686;2023-09-19T11:47:03;3.28;;;1.55;;
23187;SDS011;11762;59.878;17.686;2023-09-19T11:49:32;5.90;;;2.03;;
23187;SDS011;11762;59.878;17.686;2023-09-19T11:52:01;3.42;;;1.48;;
23187;SDS011;11762;59.878;17.686;2023-09-19T11:54:32;2.70;;;1.40;;
23187;SDS011;11762;59.878;17.686;2023-09-19T11:57:00;3.28;;;1.50;;
23187;SDS011;11762;59.878;17.686;2023-09-19T11:59:28;3.05;;;1.20;;
23187;SDS011;11762;59.878;17.686;2023-09-19T12:01:56;4.45;;;1.60;;
23187;SDS011;11762;59.878;17.686;2023-09-19T12:04:33;3.47;;;1.40;;
23187;SDS011;11762;59.878;17.686;2023-09-19T12:07:03;5.55;;;1.65;;
23187;SDS011;11762;59.878;17.686;2023-09-19T12:09:37;5.38;;;2.15;;
23187;SDS011;11762;59.878;17.686;2023-09-19T12:12:07;4.80;;;1.80;;
23187;SDS011;11762;59.878;17.686;2023-09-19T12:14:37;2.75;;;1.48;;
23187;SDS011;11762;59.878;17.686;2023-09-19T12:17:07;2.70;;;1.40;;
23187;SDS011;11762;59.878;17.686;2023-09-19T12:19:35;7.20;;;1.40;;
23187;SDS011;11762;59.878;17.686;2023-09-19T12:22:03;2.65;;;1.30;;
23187;SDS011;11762;59.878;17.686;2023-09-19T12:24:30;3.45;;;1.30;;
23187;SDS011;11762;59.878;17.686;2023-09-19T12:27:01;3.70;;;1.50;;
23187;SDS011;11762;59.878;17.686;2023-09-19T12:29:32;2.65;;;1.27;;
23187;SDS011;11762;59.878;17.686;2023-09-19T12:32:09;4.88;;;1.33;;
23187;SDS011;11762;59.878;17.686;2023-09-19T12:34:36;3.88;;;1.60;;
23187;SDS011;11762;59.878;17.686;2023-09-19T12:37:08;4.38;;;1.42;;
23187;SDS011;11762;59.878;17.686;2023-09-19T12:39:41;1.73;;;0.90;;
23187;SDS011;11762;59.878;17.686;2023-09-19T12:42:09;4.13;;;1.40;;
23187;SDS011;11762;59.878;17.686;2023-09-19T12:44:41;2.60;;;1.02;;
23187;SDS011;11762;59.878;17.686;2023-09-19T12:47:10;3.90;;;1.05;;
23187;SDS011;11762;59.878;17.686;2023-09-19T12:52:44;4.93;;;1.40;;
23187;SDS011;11762;59.878;17.686;2023-09-19T12:55:20;2.75;;;1.25;;
23187;SDS011;11762;59.878;17.686;2023-09-19T12:57:55;5.70;;;1.10;;
23187;SDS011;11762;59.878;17.686;2023-09-19T13:00:33;3.70;;;1.20;;
23187;SDS011;11762;59.878;17.686;2023-09-19T13:03:13;3.53;;;1.30;;
23187;SDS011;11762;59.878;17.686;2023-09-19T13:05:47;4.68;;;1.40;;
23187;SDS011;11762;59.878;17.686;2023-09-19T13:08:18;4.22;;;1.10;;
23187;SDS011;11762;59.878;17.686;2023-09-19T13:11:04;4.15;;;1.33;;
23187;SDS011;11762;59.878;17.686;2023-09-19T13:13:35;2.72;;;1.10;;
23187;SDS011;11762;59.878;17.686;2023-09-19T13:16:04;2.20;;;1.00;;
23187;SDS011;11762;59.878;17.686;2023-09-19T13:18:43;2.55;;;1.20;;
23187;SDS011;11762;59.878;17.686;2023-09-19T13:21:11;4.28;;;1.42;;
23187;SDS011;11762;59.878;17.686;2023-09-19T13:23:48;4.88;;;1.15;;
23187;SDS011;11762;59.878;17.686;2023-09-19T13:26:16;3.95;;;1.70;;
23187;SDS011;11762;59.878;17.686;2023-09-19T13:28:43;5.13;;;1.60;;
23187;SDS011;11762;59.878;17.686;2023-09-19T13:31:11;3.67;;;1.48;;
23187;SDS011;11762;59.878;17.686;2023-09-19T13:33:42;4.55;;;1.70;;
23187;SDS011;11762;59.878;17.686;2023-09-19T13:36:10;4.78;;;1.52;;
23187;SDS011;11762;59.878;17.686;2023-09-19T13:38:38;6.68;;;1.67;;
23187;SDS011;11762;59.878;17.686;2023-09-19T13:41:05;4.05;;;1.42;;
23187;SDS011;11762;59.878;17.686;2023-09-19T13:43:32;4.07;;;1.20;;
23187;SDS011;11762;59.878;17.686;2023-09-19T13:45:59;3.45;;;1.50;;
23187;SDS011;11762;59.878;17.686;2023-09-19T13:48:29;10.43;;;1.30;;
23187;SDS011;11762;59.878;17.686;2023-09-19T13:50:56;2.78;;;1.38;;
23187;SDS011;11762;59.878;17.686;2023-09-19T13:53:23;4.03;;;1.27;;
23187;SDS011;11762;59.878;17.686;2023-09-19T13:55:51;5.75;;;1.38;;
23187;SDS011;11762;59.878;17.686;2023-09-19T13:58:18;4.53;;;1.20;;
23187;SDS011;11762;59.878;17.686;2023-09-19T14:00:46;6.37;;;1.87;;
23187;SDS011;11762;59.878;17.686;2023-09-19T14:03:13;4.73;;;1.60;;
23187;SDS011;11762;59.878;17.686;2023-09-19T14:05:41;11.13;;;1.70;;
23187;SDS011;11762;59.878;17.686;2023-09-19T14:08:08;9.07;;;1.67;;
23187;SDS011;11762;59.878;17.686;2023-09-19T14:10:38;7.20;;;1.27;;
23187;SDS011;11762;59.878;17.686;2023-09-19T14:13:04;5.77;;;1.50;;
23187;SDS011;11762;59.878;17.686;2023-09-19T14:15:31;5.50;;;1.40;;
23187;SDS011;11762;59.878;17.686;2023-09-19T14:18:00;7.00;;;1.30;;
23187;SDS011;11762;59.878;17.686;2023-09-19T14:20:27;4.97;;;1.40;;
23187;SDS011;11762;59.878;17.686;2023-09-19T14:22:56;5.00;;;0.90;;
23187;SDS011;11762;59.878;17.686;2023-09-19T14:25:25;5.23;;;1.30;;
23187;SDS011;11762;59.878;17.686;2023-09-19T14:27:53;6.27;;;1.63;;
23187;SDS011;11762;59.878;17.686;2023-09-19T14:30:20;6.37;;;1.40;;
23187;SDS011;11762;59.878;17.686;2023-09-19T14:32:48;3.70;;;0.93;;
23187;SDS011;11762;59.878;17.686;2023-09-19T14:35:15;6.30;;;1.47;;
23187;SDS011;11762;59.878;17.686;2023-09-19T14:37:42;5.20;;;1.37;;
23187;SDS011;11762;59.878;17.686;2023-09-19T14:40:12;3.03;;;1.00;;
23187;SDS011;11762;59.878;17.686;2023-09-19T14:42:42;4.63;;;1.57;;
23187;SDS011;11762;59.878;17.686;2023-09-19T14:45:10;3.43;;;1.17;;
23187;SDS011;11762;59.878;17.686;2023-09-19T14:47:39;2.50;;;1.00;;
23187;SDS011;11762;59.878;17.686;2023-09-19T14:50:07;3.70;;;1.23;;
23187;SDS011;11762;59.878;17.686;2023-09-19T14:52:34;5.00;;;1.53;;
23187;SDS011;11762;59.878;17.686;2023-09-19T14:55:01;4.57;;;1.30;;
23187;SDS011;11762;59.878;17.686;2023-09-19T14:57:31;3.37;;;1.30;;
23187;SDS011;11762;59.878;17.686;2023-09-19T14:59:58;5.13;;;0.90;;
23187;SDS011;11762;59.878;17.686;2023-09-19T15:02:25;2.00;;;0.90;;